createdAt,value
2018-09-30T00:00:03.151Z,988.78
2018-09-30T00:01:03.170Z,988.75
2018-09-30T00:02:03.190Z,988.72
2018-09-30T00:03:03.209Z,988.73
2018-09-30T00:04:03.227Z,988.7
2018-09-30T00:05:03.248Z,988.7
2018-09-30T00:06:03.270Z,988.69
2018-09-30T00:07:03.290Z,988.66
2018-09-30T00:08:03.306Z,988.68
2018-09-30T00:09:03.330Z,988.67
2018-09-30T00:10:03.345Z,988.71
2018-09-30T00:11:03.364Z,988.67
2018-09-30T00:12:03.387Z,988.68
2018-09-30T00:13:03.407Z,988.67
2018-09-30T00:14:03.427Z,988.65
2018-09-30T00:15:03.444Z,988.65
2018-09-30T00:16:03.463Z,988.62
2018-09-30T00:17:03.480Z,988.61
2018-09-30T00:18:03.502Z,988.57
2018-09-30T00:19:03.520Z,988.59
2018-09-30T00:20:03.541Z,988.55
2018-09-30T00:21:03.566Z,988.57
2018-09-30T00:22:03.579Z,988.57
2018-09-30T00:23:03.599Z,988.58
2018-09-30T00:24:03.619Z,988.52
2018-09-30T00:25:03.637Z,988.53
2018-09-30T00:26:03.658Z,988.52
2018-09-30T00:27:03.678Z,988.48
2018-09-30T00:28:03.700Z,988.44
2018-09-30T00:29:03.717Z,988.43
2018-09-30T00:30:03.739Z,988.42
2018-09-30T00:31:03.784Z,988.42
2018-09-30T00:32:03.775Z,988.38
2018-09-30T00:33:03.794Z,988.4
2018-09-30T00:34:03.813Z,988.4
2018-09-30T00:35:03.833Z,988.4
2018-09-30T00:36:03.856Z,988.38
2018-09-30T00:37:03.875Z,988.4
2018-09-30T00:38:03.891Z,988.38
2018-09-30T00:39:03.909Z,988.39
2018-09-30T00:40:03.929Z,988.37
2018-09-30T00:41:03.950Z,988.39
2018-09-30T00:42:03.972Z,988.33
2018-09-30T00:43:03.988Z,988.33
2018-09-30T00:44:04.010Z,988.31
2018-09-30T00:45:04.027Z,988.28
2018-09-30T00:46:04.047Z,988.28
2018-09-30T00:47:04.067Z,988.29
2018-09-30T00:48:04.090Z,988.24
2018-09-30T00:49:04.106Z,988.23
2018-09-30T00:50:04.125Z,988.21
2018-09-30T00:51:04.145Z,988.19
2018-09-30T00:52:04.164Z,988.2
2018-09-30T00:53:04.184Z,988.18
2018-09-30T00:54:04.204Z,988.17
2018-09-30T00:55:04.223Z,988.2
2018-09-30T00:56:04.243Z,988.18
2018-09-30T00:57:04.267Z,988.21
2018-09-30T00:58:04.281Z,988.21
2018-09-30T00:59:04.300Z,988.21
2018-09-30T01:00:04.321Z,988.18
2018-09-30T01:01:04.339Z,988.16
2018-09-30T01:02:04.359Z,988.16
2018-09-30T01:03:04.384Z,988.11
2018-09-30T01:04:04.400Z,988.09
2018-09-30T01:05:04.417Z,988.09
2018-09-30T01:06:04.438Z,988.09
2018-09-30T01:07:04.462Z,988.09
2018-09-30T01:08:04.479Z,988.1
2018-09-30T01:09:04.496Z,988.07
2018-09-30T01:10:04.516Z,988.09
2018-09-30T01:11:04.535Z,988.12
2018-09-30T01:12:04.554Z,988.06
2018-09-30T01:13:04.575Z,988.12
2018-09-30T01:14:04.593Z,988.11
2018-09-30T01:15:04.613Z,988.08
2018-09-30T01:16:04.635Z,988.12
2018-09-30T01:17:04.652Z,988.05
2018-09-30T01:18:04.710Z,988.07
2018-09-30T01:19:04.689Z,988.04
2018-09-30T01:20:04.712Z,988.06
2018-09-30T01:21:04.730Z,988.09
2018-09-30T01:22:04.748Z,988.02
2018-09-30T01:23:04.768Z,988
2018-09-30T01:24:04.789Z,987.96
2018-09-30T01:25:04.807Z,987.91
2018-09-30T01:26:04.828Z,987.93
2018-09-30T01:27:04.845Z,987.88
2018-09-30T01:28:04.865Z,987.86
2018-09-30T01:29:04.888Z,987.91
2018-09-30T01:30:04.921Z,987.91
2018-09-30T01:31:04.927Z,987.88
2018-09-30T01:32:04.943Z,987.89
2018-09-30T01:33:04.967Z,987.9
2018-09-30T01:34:04.985Z,987.84
2018-09-30T01:35:05.001Z,987.85
2018-09-30T01:36:05.021Z,987.8
2018-09-30T01:37:05.040Z,987.82
2018-09-30T01:38:05.059Z,987.78
2018-09-30T01:39:05.080Z,987.75
2018-09-30T01:40:05.098Z,987.79
2018-09-30T01:41:05.118Z,987.77
2018-09-30T01:42:05.138Z,987.73
2018-09-30T01:43:05.161Z,987.78
2018-09-30T01:44:05.182Z,987.73
2018-09-30T01:45:05.196Z,987.71
2018-09-30T01:46:05.214Z,987.64
2018-09-30T01:47:05.235Z,987.67
2018-09-30T01:48:05.258Z,987.7
2018-09-30T01:49:05.275Z,987.72
2018-09-30T01:50:05.296Z,987.69
2018-09-30T01:51:05.315Z,987.7
2018-09-30T01:52:05.334Z,987.68
2018-09-30T01:53:05.351Z,987.65
2018-09-30T01:54:05.376Z,987.63
2018-09-30T01:55:05.392Z,987.55
2018-09-30T01:56:05.407Z,987.53
2018-09-30T01:57:05.431Z,987.52
2018-09-30T01:58:05.449Z,987.53
2018-09-30T01:59:05.466Z,987.49
2018-09-30T02:00:05.488Z,987.44
2018-09-30T02:01:05.512Z,987.47
2018-09-30T02:02:05.529Z,987.44
2018-09-30T02:03:05.545Z,987.42
2018-09-30T02:04:05.564Z,987.4
2018-09-30T02:05:05.588Z,987.39
2018-09-30T02:06:05.607Z,987.38
2018-09-30T02:07:05.625Z,987.39
2018-09-30T02:08:05.641Z,987.38
2018-09-30T02:09:05.666Z,987.38
2018-09-30T02:10:05.685Z,987.32
2018-09-30T02:11:05.702Z,987.3
2018-09-30T02:12:05.723Z,987.3
2018-09-30T02:13:05.745Z,987.27
2018-09-30T02:14:05.757Z,987.31
2018-09-30T02:15:05.780Z,987.26
2018-09-30T02:16:05.798Z,987.25
2018-09-30T02:17:05.820Z,987.23
2018-09-30T02:18:05.835Z,987.21
2018-09-30T02:19:05.855Z,987.21
2018-09-30T02:20:05.876Z,987.2
2018-09-30T02:21:05.892Z,987.2
2018-09-30T02:22:05.911Z,987.14
2018-09-30T02:23:05.932Z,987.16
2018-09-30T02:24:05.955Z,987.17
2018-09-30T02:25:05.970Z,987.1
2018-09-30T02:26:05.990Z,987.1
2018-09-30T02:27:06.013Z,987.07
2018-09-30T02:28:06.028Z,987.08
2018-09-30T02:29:06.047Z,987.05
2018-09-30T02:30:06.068Z,987.01
2018-09-30T02:31:06.091Z,986.98
2018-09-30T02:32:06.106Z,986.96
2018-09-30T02:33:06.133Z,986.96
2018-09-30T02:34:06.148Z,986.96
2018-09-30T02:35:06.168Z,986.93
2018-09-30T02:36:06.183Z,986.96
2018-09-30T02:37:06.208Z,986.94
2018-09-30T02:38:06.238Z,986.94
2018-09-30T02:39:06.246Z,986.94
2018-09-30T02:40:06.263Z,986.96
2018-09-30T02:41:06.284Z,986.93
2018-09-30T02:42:06.300Z,986.91
2018-09-30T02:43:06.318Z,986.9
2018-09-30T02:44:06.343Z,986.91
2018-09-30T02:45:06.358Z,986.91
2018-09-30T02:46:06.377Z,986.91
2018-09-30T02:47:06.395Z,986.91
2018-09-30T02:48:06.415Z,986.9
2018-09-30T02:49:06.439Z,986.87
2018-09-30T02:50:06.456Z,986.85
2018-09-30T02:51:06.471Z,986.83
2018-09-30T02:52:06.500Z,986.85
2018-09-30T02:53:06.521Z,986.8
2018-09-30T02:54:06.530Z,986.77
2018-09-30T02:55:06.550Z,986.79
2018-09-30T02:56:06.570Z,986.7
2018-09-30T02:57:06.594Z,986.73
2018-09-30T02:58:06.607Z,986.76
2018-09-30T02:59:06.629Z,986.71
2018-09-30T03:00:06.647Z,986.67
2018-09-30T03:01:06.666Z,986.69
2018-09-30T03:02:06.685Z,986.71
2018-09-30T03:03:06.707Z,986.67
2018-09-30T03:04:06.729Z,986.69
2018-09-30T03:05:06.743Z,986.66
2018-09-30T03:06:06.760Z,986.63
2018-09-30T03:07:06.786Z,986.64
2018-09-30T03:08:06.807Z,986.63
2018-09-30T03:09:06.820Z,986.59
2018-09-30T03:10:06.838Z,986.55
2018-09-30T03:11:06.859Z,986.54
2018-09-30T03:12:06.880Z,986.54
2018-09-30T03:13:06.898Z,986.49
2018-09-30T03:14:06.917Z,986.5
2018-09-30T03:15:06.936Z,986.54
2018-09-30T03:16:06.956Z,986.51
2018-09-30T03:17:06.974Z,986.52
2018-09-30T03:18:06.994Z,986.5
2018-09-30T03:19:07.013Z,986.51
2018-09-30T03:20:07.032Z,986.44
2018-09-30T03:21:07.052Z,986.44
2018-09-30T03:22:07.072Z,986.43
2018-09-30T03:23:07.091Z,986.42
2018-09-30T03:24:07.109Z,986.37
2018-09-30T03:25:07.129Z,986.33
2018-09-30T03:26:07.148Z,986.38
2018-09-30T03:27:07.165Z,986.38
2018-09-30T03:28:07.186Z,986.32
2018-09-30T03:29:07.208Z,986.34
2018-09-30T03:30:07.225Z,986.32
2018-09-30T03:31:07.243Z,986.3
2018-09-30T03:32:07.264Z,986.32
2018-09-30T03:33:07.282Z,986.3
2018-09-30T03:34:07.302Z,986.26
2018-09-30T03:35:07.321Z,986.31
2018-09-30T03:36:07.341Z,986.34
2018-09-30T03:37:07.360Z,986.3
2018-09-30T03:38:07.380Z,986.3
2018-09-30T03:39:07.399Z,986.3
2018-09-30T03:40:07.420Z,986.32
2018-09-30T03:41:07.439Z,986.33
2018-09-30T03:42:07.456Z,986.28
2018-09-30T03:43:07.476Z,986.27
2018-09-30T03:44:07.495Z,986.23
2018-09-30T03:45:07.517Z,986.24
2018-09-30T03:46:07.533Z,986.25
2018-09-30T03:47:07.555Z,986.21
2018-09-30T03:48:07.573Z,986.22
2018-09-30T03:49:07.793Z,986.19
2018-09-30T03:50:07.610Z,986.2
2018-09-30T03:51:07.631Z,986.2
2018-09-30T03:52:07.650Z,986.15
2018-09-30T03:53:07.669Z,986.15
2018-09-30T03:54:07.692Z,986.18
2018-09-30T03:55:07.706Z,986.14
2018-09-30T03:56:07.726Z,986.08
2018-09-30T03:57:07.744Z,986.13
2018-09-30T03:58:07.770Z,986.11
2018-09-30T03:59:07.783Z,986.1
2018-09-30T04:00:07.801Z,986.09
2018-09-30T04:01:07.834Z,986.13
2018-09-30T04:02:07.840Z,986.05
2018-09-30T04:03:07.861Z,986
2018-09-30T04:04:07.881Z,986.03
2018-09-30T04:05:07.901Z,986.02
2018-09-30T04:06:07.917Z,986.02
2018-09-30T04:07:07.936Z,986.04
2018-09-30T04:08:07.955Z,986.08
2018-09-30T04:09:07.976Z,986.11
2018-09-30T04:10:08.040Z,986.03
2018-09-30T04:11:08.016Z,986.04
2018-09-30T04:12:08.033Z,986.04
2018-09-30T04:13:08.052Z,986.05
2018-09-30T04:14:08.072Z,986.02
2018-09-30T04:15:08.092Z,986.05
2018-09-30T04:16:08.109Z,986.07
2018-09-30T04:17:08.230Z,986.04
2018-09-30T04:18:08.146Z,986.05
2018-09-30T04:19:08.166Z,986.07
2018-09-30T04:20:08.188Z,986.1
2018-09-30T04:21:08.205Z,986.07
2018-09-30T04:22:08.222Z,986.09
2018-09-30T04:23:08.241Z,986.06
2018-09-30T04:24:08.263Z,986.03
2018-09-30T04:25:08.284Z,986.03
2018-09-30T04:26:08.298Z,986.01
2018-09-30T04:27:08.319Z,985.99
2018-09-30T04:28:08.339Z,986.01
2018-09-30T04:29:08.361Z,985.98
2018-09-30T04:30:08.376Z,985.95
2018-09-30T04:31:08.393Z,985.99
2018-09-30T04:32:08.413Z,985.98
2018-09-30T04:33:08.439Z,985.97
2018-09-30T04:34:08.452Z,985.99
2018-09-30T04:35:08.471Z,985.98
2018-09-30T04:36:08.489Z,986
2018-09-30T04:37:08.709Z,985.97
2018-09-30T04:38:08.526Z,986.01
2018-09-30T04:39:08.546Z,986
2018-09-30T04:40:08.564Z,985.98
2018-09-30T04:41:08.585Z,985.9
2018-09-30T04:42:08.604Z,985.89
2018-09-30T04:43:08.623Z,985.92
2018-09-30T04:44:08.641Z,985.9
2018-09-30T04:45:08.662Z,985.84
2018-09-30T04:46:08.682Z,985.84
2018-09-30T04:47:08.900Z,985.83
2018-09-30T04:48:08.716Z,985.85
2018-09-30T04:49:08.738Z,985.8
2018-09-30T04:50:08.926Z,985.82
2018-09-30T04:51:08.775Z,985.76
2018-09-30T04:52:08.793Z,985.75
2018-09-30T04:53:08.813Z,985.75
2018-09-30T04:54:08.832Z,985.68
2018-09-30T04:55:08.850Z,985.68
2018-09-30T04:56:08.869Z,985.7
2018-09-30T04:57:08.890Z,985.66
2018-09-30T04:58:08.908Z,985.66
2018-09-30T04:59:08.927Z,985.69
2018-09-30T05:00:08.949Z,985.68
2018-09-30T05:01:08.984Z,985.65
2018-09-30T05:02:08.985Z,985.65
2018-09-30T05:03:09.003Z,985.69
2018-09-30T05:04:09.023Z,985.69
2018-09-30T05:05:09.049Z,985.68
2018-09-30T05:06:09.063Z,985.68
2018-09-30T05:07:09.081Z,985.69
2018-09-30T05:08:09.098Z,985.68
2018-09-30T05:09:09.116Z,985.69
2018-09-30T05:10:09.137Z,985.7
2018-09-30T05:11:09.157Z,985.72
2018-09-30T05:12:09.176Z,985.7
2018-09-30T05:13:09.194Z,985.71
2018-09-30T05:14:09.213Z,985.73
2018-09-30T05:15:09.232Z,985.75
2018-09-30T05:16:09.338Z,985.68
2018-09-30T05:17:09.277Z,985.75
2018-09-30T05:18:09.290Z,985.75
2018-09-30T05:19:09.309Z,985.76
2018-09-30T05:20:09.327Z,985.76
2018-09-30T05:21:09.349Z,985.76
2018-09-30T05:22:09.368Z,985.73
2018-09-30T05:23:09.394Z,985.71
2018-09-30T05:24:09.405Z,985.69
2018-09-30T05:25:09.423Z,985.67
2018-09-30T05:26:09.443Z,985.7
2018-09-30T05:27:09.467Z,985.68
2018-09-30T05:28:09.479Z,985.68
2018-09-30T05:29:09.499Z,985.67
2018-09-30T05:30:09.518Z,985.7
2018-09-30T05:31:09.560Z,985.69
2018-09-30T05:32:09.556Z,985.65
2018-09-30T05:33:09.575Z,985.65
2018-09-30T05:34:09.593Z,985.63
2018-09-30T05:35:09.613Z,985.6
2018-09-30T05:36:09.631Z,985.57
2018-09-30T05:37:09.663Z,985.57
2018-09-30T05:38:09.673Z,985.56
2018-09-30T05:39:09.690Z,985.59
2018-09-30T05:40:09.707Z,985.61
2018-09-30T05:41:09.728Z,985.59
2018-09-30T05:42:09.746Z,985.61
2018-09-30T05:43:09.766Z,985.59
2018-09-30T05:44:09.784Z,985.57
2018-09-30T05:45:09.805Z,985.6
2018-09-30T05:46:09.824Z,985.62
2018-09-30T05:47:09.847Z,985.6
2018-09-30T05:48:09.862Z,985.62
2018-09-30T05:49:09.926Z,985.61
2018-09-30T05:50:09.900Z,985.63
2018-09-30T05:51:09.918Z,985.62
2018-09-30T05:52:09.936Z,985.62
2018-09-30T05:53:09.957Z,985.67
2018-09-30T05:54:09.975Z,985.66
2018-09-30T05:55:09.995Z,985.68
2018-09-30T05:56:10.015Z,985.69
2018-09-30T05:57:10.032Z,985.66
2018-09-30T05:58:10.229Z,985.69
2018-09-30T05:59:10.071Z,985.65
2018-09-30T06:00:10.090Z,985.66
2018-09-30T06:01:10.109Z,985.66
2018-09-30T06:02:10.127Z,985.6
2018-09-30T06:03:10.149Z,985.56
2018-09-30T06:04:10.167Z,985.58
2018-09-30T06:05:10.228Z,985.59
2018-09-30T06:06:10.208Z,985.59
2018-09-30T06:07:10.224Z,985.61
2018-09-30T06:08:10.243Z,985.64
2018-09-30T06:09:10.376Z,985.69
2018-09-30T06:10:10.281Z,985.67
2018-09-30T06:11:10.300Z,985.67
2018-09-30T06:12:10.320Z,985.64
2018-09-30T06:13:10.338Z,985.63
2018-09-30T06:14:10.480Z,985.63
2018-09-30T06:15:10.376Z,985.59
2018-09-30T06:16:10.394Z,985.61
2018-09-30T06:17:10.415Z,985.65
2018-09-30T06:18:10.434Z,985.63
2018-09-30T06:19:10.452Z,985.67
2018-09-30T06:20:10.475Z,985.68
2018-09-30T06:21:10.491Z,985.74
2018-09-30T06:22:10.510Z,985.76
2018-09-30T06:23:10.529Z,985.77
2018-09-30T06:24:10.602Z,985.78
2018-09-30T06:25:10.569Z,985.77
2018-09-30T06:26:10.588Z,985.78
2018-09-30T06:27:10.604Z,985.79
2018-09-30T06:28:10.624Z,985.79
2018-09-30T06:29:10.644Z,985.78
2018-09-30T06:30:10.663Z,985.76
2018-09-30T06:31:10.684Z,985.77
2018-09-30T06:32:10.760Z,985.79
2018-09-30T06:33:10.725Z,985.76
2018-09-30T06:34:10.741Z,985.76
2018-09-30T06:35:10.762Z,985.75
2018-09-30T06:36:10.780Z,985.77
2018-09-30T06:37:10.885Z,985.82
2018-09-30T06:38:10.819Z,985.8
2018-09-30T06:39:10.838Z,985.83
2018-09-30T06:40:10.857Z,985.81
2018-09-30T06:41:10.877Z,985.84
2018-09-30T06:42:11.097Z,985.88
2018-09-30T06:43:10.915Z,985.85
2018-09-30T06:44:10.934Z,985.83
2018-09-30T06:45:11.091Z,985.83
2018-09-30T06:46:10.971Z,985.87
2018-09-30T06:47:10.992Z,985.88
2018-09-30T06:48:11.011Z,985.88
2018-09-30T06:49:11.029Z,985.95
2018-09-30T06:50:11.048Z,985.9
2018-09-30T06:51:11.068Z,985.93
2018-09-30T06:52:11.087Z,985.95
2018-09-30T06:53:11.106Z,985.9
2018-09-30T06:54:11.125Z,985.89
2018-09-30T06:55:11.144Z,985.86
2018-09-30T06:56:11.163Z,985.83
2018-09-30T06:57:11.182Z,985.84
2018-09-30T06:58:11.204Z,985.81
2018-09-30T06:59:11.223Z,985.78
2018-09-30T07:00:11.241Z,985.75
2018-09-30T07:01:11.264Z,985.75
2018-09-30T07:02:11.282Z,985.75
2018-09-30T07:03:11.298Z,985.75
2018-09-30T07:04:11.317Z,985.74
2018-09-30T07:05:11.337Z,985.73
2018-09-30T07:06:11.358Z,985.75
2018-09-30T07:07:11.374Z,985.74
2018-09-30T07:08:11.395Z,985.73
2018-09-30T07:09:11.416Z,985.74
2018-09-30T07:10:11.437Z,985.71
2018-09-30T07:11:11.455Z,985.72
2018-09-30T07:12:11.473Z,985.71
2018-09-30T07:13:11.495Z,985.72
2018-09-30T07:14:11.511Z,985.69
2018-09-30T07:15:11.532Z,985.7
2018-09-30T07:16:11.550Z,985.7
2018-09-30T07:17:11.568Z,985.74
2018-09-30T07:18:11.589Z,985.73
2018-09-30T07:19:11.610Z,985.75
2018-09-30T07:20:11.628Z,985.8
2018-09-30T07:21:11.647Z,985.79
2018-09-30T07:22:11.704Z,985.82
2018-09-30T07:23:11.686Z,985.81
2018-09-30T07:24:11.705Z,985.81
2018-09-30T07:25:11.724Z,985.73
2018-09-30T07:26:11.744Z,985.71
2018-09-30T07:27:11.764Z,985.7
2018-09-30T07:28:11.783Z,985.68
2018-09-30T07:29:11.802Z,985.67
2018-09-30T07:30:11.823Z,985.66
2018-09-30T07:31:11.845Z,985.64
2018-09-30T07:32:11.862Z,985.64
2018-09-30T07:33:11.883Z,985.62
2018-09-30T07:34:11.900Z,985.66
2018-09-30T07:35:11.921Z,985.62
2018-09-30T07:36:11.942Z,985.65
2018-09-30T07:37:11.961Z,985.65
2018-09-30T07:38:11.983Z,985.65
2018-09-30T07:39:12.001Z,985.63
2018-09-30T07:40:12.021Z,985.64
2018-09-30T07:41:12.040Z,985.65
2018-09-30T07:42:12.062Z,985.62
2018-09-30T07:43:12.081Z,985.63
2018-09-30T07:44:12.100Z,985.63
2018-09-30T07:45:12.123Z,985.65
2018-09-30T07:46:12.141Z,985.64
2018-09-30T07:47:12.162Z,985.59
2018-09-30T07:48:12.181Z,985.61
2018-09-30T07:49:12.202Z,985.58
2018-09-30T07:50:12.220Z,985.58
2018-09-30T07:51:12.242Z,985.58
2018-09-30T07:52:12.263Z,985.58
2018-09-30T07:53:12.283Z,985.49
2018-09-30T07:54:12.306Z,985.5
2018-09-30T07:55:12.322Z,985.5
2018-09-30T07:56:12.346Z,985.47
2018-09-30T07:57:12.365Z,985.49
2018-09-30T07:58:12.390Z,985.48
2018-09-30T07:59:12.403Z,985.5
2018-09-30T08:00:12.424Z,985.52
2018-09-30T08:01:12.444Z,985.48
2018-09-30T08:02:12.463Z,985.46
2018-09-30T08:03:12.483Z,985.42
2018-09-30T08:04:12.505Z,985.43
2018-09-30T08:05:12.524Z,985.4
2018-09-30T08:06:12.545Z,985.37
2018-09-30T08:07:12.565Z,985.38
2018-09-30T08:08:12.585Z,985.38
2018-09-30T08:09:12.608Z,985.4
2018-09-30T08:10:12.626Z,985.42
2018-09-30T08:11:12.646Z,985.39
2018-09-30T08:12:12.666Z,985.41
2018-09-30T08:13:12.687Z,985.4
2018-09-30T08:14:12.708Z,985.4
2018-09-30T08:15:12.729Z,985.35
2018-09-30T08:16:12.750Z,985.35
2018-09-30T08:17:12.774Z,985.32
2018-09-30T08:18:12.797Z,985.35
2018-09-30T08:19:12.813Z,985.31
2018-09-30T08:20:12.834Z,985.33
2018-09-30T08:21:12.860Z,985.3
2018-09-30T08:22:12.878Z,985.31
2018-09-30T08:23:12.898Z,985.31
2018-09-30T08:24:13.017Z,985.26
2018-09-30T08:25:12.946Z,985.27
2018-09-30T08:26:12.965Z,985.26
2018-09-30T08:27:12.985Z,985.21
2018-09-30T08:28:13.008Z,985.21
2018-09-30T08:29:13.029Z,985.21
2018-09-30T08:30:13.050Z,985.21
2018-09-30T08:31:13.071Z,985.19
2018-09-30T08:32:13.097Z,985.21
2018-09-30T08:33:13.119Z,985.23
2018-09-30T08:34:13.137Z,985.24
2018-09-30T08:35:13.162Z,985.17
2018-09-30T08:36:13.181Z,985.2
2018-09-30T08:37:13.202Z,985.23
2018-09-30T08:38:13.225Z,985.17
2018-09-30T08:39:13.247Z,985.13
2018-09-30T08:40:13.269Z,985.16
2018-09-30T08:41:13.294Z,985.16
2018-09-30T08:42:13.313Z,985.18
2018-09-30T08:43:13.335Z,985.14
2018-09-30T08:44:13.382Z,985.14
2018-09-30T08:45:13.380Z,985.19
2018-09-30T08:46:13.402Z,985.21
2018-09-30T08:47:13.497Z,985.15
2018-09-30T08:48:13.447Z,985.17
2018-09-30T08:49:13.520Z,985.14
2018-09-30T08:50:13.491Z,985.11
2018-09-30T08:51:13.513Z,985.08
2018-09-30T08:52:13.534Z,985.06
2018-09-30T08:53:13.558Z,985.1
2018-09-30T08:54:13.579Z,985.09
2018-09-30T08:55:13.602Z,985.05
2018-09-30T08:56:13.681Z,985.08
2018-09-30T08:57:13.646Z,985.05
2018-09-30T08:58:13.669Z,985.07
2018-09-30T08:59:13.690Z,985.04
2018-09-30T09:00:13.713Z,985.05
2018-09-30T09:01:13.736Z,985.03
2018-09-30T09:02:13.758Z,985
2018-09-30T09:03:13.823Z,985.04
2018-09-30T09:04:13.805Z,985.03
2018-09-30T09:05:13.825Z,985.06
2018-09-30T09:06:13.847Z,985.03
2018-09-30T09:07:13.869Z,985.02
2018-09-30T09:08:13.896Z,985.02
2018-09-30T09:09:13.913Z,985.05
2018-09-30T09:10:13.939Z,985.07
2018-09-30T09:11:13.958Z,985
2018-09-30T09:12:13.981Z,984.98
2018-09-30T09:13:14.003Z,984.99
2018-09-30T09:14:14.025Z,984.96
2018-09-30T09:15:14.046Z,984.92
2018-09-30T09:16:14.068Z,984.89
2018-09-30T09:17:14.089Z,984.91
2018-09-30T09:18:14.109Z,984.89
2018-09-30T09:19:14.131Z,984.87
2018-09-30T09:20:14.151Z,984.88
2018-09-30T09:21:14.173Z,984.84
2018-09-30T09:22:14.203Z,984.86
2018-09-30T09:23:14.220Z,984.82
2018-09-30T09:24:14.239Z,984.83
2018-09-30T09:25:14.260Z,984.84
2018-09-30T09:26:14.279Z,984.8
2018-09-30T09:27:14.301Z,984.84
2018-09-30T09:28:14.422Z,984.82
2018-09-30T09:29:14.344Z,984.82
2018-09-30T09:30:14.365Z,984.83
2018-09-30T09:31:14.387Z,984.83
2018-09-30T09:32:14.411Z,984.82
2018-09-30T09:33:14.429Z,984.8
2018-09-30T09:34:14.453Z,984.76
2018-09-30T09:35:14.641Z,984.78
2018-09-30T09:36:14.499Z,984.77
2018-09-30T09:37:14.517Z,984.73
2018-09-30T09:38:14.547Z,984.76
2018-09-30T09:39:14.559Z,984.71
2018-09-30T09:40:14.584Z,984.7
2018-09-30T09:41:14.605Z,984.66
2018-09-30T09:42:14.626Z,984.65
2018-09-30T09:43:14.649Z,984.65
2018-09-30T09:44:14.669Z,984.65
2018-09-30T09:45:14.693Z,984.67
2018-09-30T09:46:14.715Z,984.62
2018-09-30T09:47:14.740Z,984.61
2018-09-30T09:48:14.760Z,984.59
2018-09-30T09:49:14.782Z,984.62
2018-09-30T09:50:14.806Z,984.62
2018-09-30T09:51:14.826Z,984.61
2018-09-30T09:52:14.848Z,984.57
2018-09-30T09:53:14.875Z,984.54
2018-09-30T09:54:14.896Z,984.57
2018-09-30T09:55:14.968Z,984.6
2018-09-30T09:56:14.940Z,984.56
2018-09-30T09:57:14.962Z,984.56
2018-09-30T09:58:14.984Z,984.54
2018-09-30T09:59:15.177Z,984.53
2018-09-30T10:00:15.030Z,984.49
2018-09-30T10:01:15.051Z,984.51
2018-09-30T10:02:15.074Z,984.45
2018-09-30T10:03:15.097Z,984.47
2018-09-30T10:04:15.118Z,984.45
2018-09-30T10:05:15.213Z,984.47
2018-09-30T10:06:15.162Z,984.46
2018-09-30T10:07:15.185Z,984.44
2018-09-30T10:08:15.241Z,984.41
2018-09-30T10:09:15.228Z,984.38
2018-09-30T10:10:15.253Z,984.4
2018-09-30T10:11:15.275Z,984.37
2018-09-30T10:12:15.297Z,984.34
2018-09-30T10:13:15.412Z,984.33
2018-09-30T10:14:15.344Z,984.32
2018-09-30T10:15:15.368Z,984.3
2018-09-30T10:16:15.386Z,984.3
2018-09-30T10:17:15.410Z,984.29
2018-09-30T10:18:15.432Z,984.25
2018-09-30T10:19:15.460Z,984.29
2018-09-30T10:20:15.479Z,984.24
2018-09-30T10:21:15.498Z,984.23
2018-09-30T10:22:15.521Z,984.24
2018-09-30T10:23:15.544Z,984.18
2018-09-30T10:24:15.568Z,984.21
2018-09-30T10:25:15.589Z,984.12
2018-09-30T10:26:15.611Z,984.12
2018-09-30T10:27:15.636Z,984.17
2018-09-30T10:28:15.655Z,984.12
2018-09-30T10:29:15.682Z,984.16
2018-09-30T10:30:15.702Z,984.12
2018-09-30T10:31:15.727Z,984.06
2018-09-30T10:32:15.749Z,984.08
2018-09-30T10:33:15.773Z,984.05
2018-09-30T10:34:15.792Z,984.07
2018-09-30T10:35:15.814Z,984
2018-09-30T10:36:15.837Z,983.97
2018-09-30T10:37:15.858Z,983.97
2018-09-30T10:38:15.907Z,983.94
2018-09-30T10:39:16.115Z,983.95
2018-09-30T10:40:15.926Z,983.88
2018-09-30T10:41:15.947Z,983.9
2018-09-30T10:42:15.972Z,983.89
2018-09-30T10:43:15.992Z,983.89
2018-09-30T10:44:16.013Z,983.89
2018-09-30T10:45:16.036Z,983.89
2018-09-30T10:46:16.057Z,983.87
2018-09-30T10:47:16.080Z,983.82
2018-09-30T10:48:16.147Z,983.79
2018-09-30T10:49:16.122Z,983.79
2018-09-30T10:50:16.144Z,983.78
2018-09-30T10:51:16.168Z,983.78
2018-09-30T10:52:16.190Z,983.76
2018-09-30T10:53:16.211Z,983.68
2018-09-30T10:54:16.231Z,983.72
2018-09-30T10:55:16.264Z,983.73
2018-09-30T10:56:16.275Z,983.69
2018-09-30T10:57:16.295Z,983.67
2018-09-30T10:58:16.315Z,983.66
2018-09-30T10:59:16.338Z,983.69
2018-09-30T11:00:16.358Z,983.63
2018-09-30T11:01:16.379Z,983.61
2018-09-30T11:02:16.401Z,983.66
2018-09-30T11:03:16.426Z,983.63
2018-09-30T11:04:16.441Z,983.66
2018-09-30T11:05:16.463Z,983.6
2018-09-30T11:06:16.484Z,983.57
2018-09-30T11:07:16.505Z,983.54
2018-09-30T11:08:16.526Z,983.54
2018-09-30T11:09:16.546Z,983.54
2018-09-30T11:10:16.567Z,983.49
2018-09-30T11:11:16.587Z,983.47
2018-09-30T11:12:16.607Z,983.42
2018-09-30T11:13:16.628Z,983.42
2018-09-30T11:14:16.649Z,983.43
2018-09-30T11:15:16.670Z,983.35
2018-09-30T11:16:16.690Z,983.36
2018-09-30T11:17:16.712Z,983.37
2018-09-30T11:18:16.733Z,983.27
2018-09-30T11:19:16.753Z,983.27
2018-09-30T11:20:16.784Z,983.27
2018-09-30T11:21:16.795Z,983.25
2018-09-30T11:22:16.867Z,983.22
2018-09-30T11:23:16.837Z,983.2
2018-09-30T11:24:16.856Z,983.18
2018-09-30T11:25:16.879Z,983.18
2018-09-30T11:26:16.899Z,983.18
2018-09-30T11:28:54.638Z,983.11
2018-09-30T11:29:54.658Z,983.07
2018-09-30T11:30:54.679Z,983.04
2018-09-30T11:31:54.772Z,983.02
2018-09-30T11:32:54.718Z,982.99
2018-09-30T11:51:26.259Z,982.67
2018-09-30T11:52:26.273Z,982.68
2018-09-30T11:53:26.291Z,982.66
2018-09-30T11:54:26.307Z,982.63
2018-09-30T11:55:26.326Z,982.61
2018-09-30T11:56:26.347Z,982.58
2018-09-30T11:57:26.367Z,982.53
2018-09-30T11:58:26.388Z,982.54
2018-09-30T11:59:26.411Z,982.47
2018-09-30T12:00:26.434Z,982.5
2018-09-30T12:01:26.454Z,982.5
2018-09-30T12:02:26.531Z,982.52
2018-09-30T12:03:26.501Z,982.49
2018-09-30T12:04:26.529Z,982.5
2018-09-30T12:05:26.549Z,982.52
2018-09-30T12:06:26.572Z,982.56
2018-09-30T12:07:26.599Z,982.55
2018-09-30T12:08:26.623Z,982.54
2018-09-30T12:09:26.647Z,982.52
2018-09-30T12:10:26.674Z,982.53
2018-09-30T12:11:26.697Z,982.5
2018-09-30T12:12:26.722Z,982.48
2018-09-30T12:13:26.747Z,982.44
2018-09-30T12:14:26.773Z,982.4
2018-09-30T12:15:26.804Z,982.41
2018-09-30T12:16:26.823Z,982.38
2018-09-30T12:17:26.851Z,982.39
2018-09-30T12:18:26.886Z,982.36
2018-09-30T12:19:26.903Z,982.33
2018-09-30T12:20:26.948Z,982.33
2018-09-30T12:21:26.959Z,982.35
2018-09-30T12:22:26.983Z,982.35
2018-09-30T12:23:27.008Z,982.3
2018-09-30T12:24:27.036Z,982.32
2018-09-30T12:25:27.062Z,982.29
2018-09-30T12:26:27.089Z,982.25
2018-09-30T12:27:27.115Z,982.26
2018-09-30T12:28:27.143Z,982.19
2018-09-30T12:29:27.169Z,982.18
2018-09-30T12:30:27.197Z,982.16
2018-09-30T12:31:27.221Z,982.14
2018-09-30T12:32:27.248Z,982.13
2018-09-30T12:33:27.277Z,982.13
2018-09-30T12:34:27.302Z,982.11
2018-09-30T12:35:27.330Z,982.02
2018-09-30T12:36:27.358Z,982.01
2018-09-30T12:37:27.386Z,981.98
2018-09-30T12:38:27.411Z,981.88
2018-09-30T12:39:27.529Z,981.85
2018-09-30T12:40:27.467Z,981.82
2018-09-30T12:41:27.500Z,981.84
2018-09-30T12:42:27.522Z,981.82
2018-09-30T12:43:27.550Z,981.85
2018-09-30T12:44:27.582Z,981.77
2018-09-30T12:45:27.606Z,981.73
2018-09-30T12:46:27.633Z,981.75
2018-09-30T12:47:27.661Z,981.74
2018-09-30T12:48:27.690Z,981.71
2018-09-30T12:49:27.715Z,981.75
2018-09-30T12:50:27.744Z,981.71